Time;durP1;ratioP1;P1;durP2;ratioP2;P2;SDS_P1;SDS_P2;PMS_P1;PMS_P2;Temp;Humidity;BMP_temperature;BMP_pressure;BME280_temperature;BME280_humidity;BME280_pressure;Samples;Min_cycle;Max_cycle;Signal;HPM_P1;HPM_P2
2021/09/22 00:05:23;;;;;;;1.90;1.40;;;17.70;74.80;;;;;;10372434;28;20226;-67
2021/09/22 00:10:45;;;;;;;2.10;1.50;;;17.70;74.80;;;;;;10384659;28;20201;-67
2021/09/22 00:16:07;;;;;;;1.90;1.37;;;17.70;74.80;;;;;;10407524;28;20217;-67
2021/09/22 00:21:31;;;;;;;2.33;1.20;;;17.80;74.90;;;;;;10410235;28;20194;-65
2021/09/22 00:26:53;;;;;;;2.73;1.60;;;17.80;74.90;;;;;;10412738;28;20213;-68
2021/09/22 00:32:15;;;;;;;1.60;1.20;;;17.80;74.90;;;;;;10410911;28;20190;-67
2021/09/22 00:37:39;;;;;;;1.43;1.20;;;17.70;74.90;;;;;;10410231;28;20571;-66
2021/09/22 00:43:01;;;;;;;1.77;1.40;;;17.70;74.90;;;;;;10410179;28;20198;-68
2021/09/22 00:48:23;;;;;;;2.20;1.30;;;17.70;74.90;;;;;;10396022;28;20225;-68
2021/09/22 00:53:47;;;;;;;2.03;1.40;;;17.70;74.90;;;;;;10413124;28;20686;-68
2021/09/22 00:59:10;;;;;;;1.73;1.43;;;17.70;74.90;;;;;;10411541;28;20218;-68
2021/09/22 01:04:33;;;;;;;2.27;1.50;;;17.70;74.90;;;;;;10428112;23;20687;-65
2021/09/22 01:09:57;;;;;;;2.50;1.77;;;17.70;75.00;;;;;;10416606;28;20217;-64
2021/09/22 01:15:28;;;;;;;1.57;1.40;;;17.70;74.90;;;;;;10441296;28;20224;-64
2021/09/22 01:20:52;;;;;;;2.03;1.40;;;17.70;75.00;;;;;;10450138;28;20218;-64
2021/09/22 01:26:15;;;;;;;1.67;1.13;;;17.70;75.00;;;;;;10448528;28;20215;-64
2021/09/22 01:31:40;;;;;;;1.37;1.13;;;17.70;75.00;;;;;;10447866;28;20889;-64
2021/09/22 01:37:02;;;;;;;3.33;1.60;;;17.70;75.00;;;;;;10489340;28;20212;-64
2021/09/22 01:42:26;;;;;;;2.60;1.30;;;17.70;75.00;;;;;;10424504;28;20214;-64
2021/09/22 01:47:48;;;;;;;2.13;1.40;;;17.70;75.00;;;;;;10442847;28;20200;-64
2021/09/22 01:53:10;;;;;;;2.13;1.60;;;17.70;75.00;;;;;;10449361;28;20224;-63
2021/09/22 01:58:34;;;;;;;2.30;1.53;;;17.70;75.00;;;;;;10453002;28;20235;-63
2021/09/22 02:03:56;;;;;;;2.17;1.40;;;17.70;75.10;;;;;;10464572;28;20197;-64
2021/09/22 02:09:18;;;;;;;1.63;1.30;;;17.70;75.10;;;;;;10447682;28;20224;-64
2021/09/22 02:14:42;;;;;;;2.00;1.50;;;17.70;75.10;;;;;;10450327;28;20749;-64
2021/09/22 02:20:05;;;;;;;1.40;1.23;;;17.70;75.10;;;;;;10455947;28;20213;-65
2021/09/22 02:25:28;;;;;;;2.77;1.03;;;17.70;75.10;;;;;;10456712;28;20200;-64
2021/09/22 02:30:51;;;;;;;3.73;1.57;;;17.70;75.10;;;;;;10456843;28;20220;-64
2021/09/22 02:36:13;;;;;;;1.30;1.20;;;17.70;75.10;;;;;;10453580;28;20209;-64
2021/09/22 02:41:36;;;;;;;1.20;1.10;;;17.70;75.10;;;;;;10429277;28;20712;-64
2021/09/22 02:47:00;;;;;;;2.27;1.40;;;17.70;75.10;;;;;;10449937;28;20830;-64
2021/09/22 02:52:22;;;;;;;1.77;1.47;;;17.70;75.10;;;;;;10456272;28;20217;-64
2021/09/22 02:57:44;;;;;;;1.80;1.30;;;17.70;75.10;;;;;;10453729;28;20221;-64
2021/09/22 03:03:08;;;;;;;2.23;1.30;;;17.70;75.10;;;;;;10477360;28;20687;-64
2021/09/22 03:08:30;;;;;;;1.77;1.20;;;17.70;75.10;;;;;;10497326;28;20196;-64
2021/09/22 03:13:52;;;;;;;1.40;1.20;;;17.70;75.10;;;;;;10455717;28;20197;-63
2021/09/22 03:19:16;;;;;;;1.83;1.53;;;17.70;75.20;;;;;;10455213;28;20220;-64
2021/09/22 03:24:38;;;;;;;2.13;1.53;;;17.70;75.20;;;;;;10455508;28;20679;-64
2021/09/22 03:30:00;;;;;;;1.83;1.43;;;17.70;75.20;;;;;;10453846;28;20213;-64
2021/09/22 03:35:24;;;;;;;2.50;1.47;;;17.70;75.20;;;;;;10446565;28;20221;-64
2021/09/22 03:40:46;;;;;;;1.30;1.20;;;17.70;75.20;;;;;;10429671;28;20217;-64
2021/09/22 03:46:08;;;;;;;1.30;1.20;;;17.70;75.20;;;;;;10443522;28;20193;-64
2021/09/22 03:51:32;;;;;;;2.27;1.43;;;17.70;75.20;;;;;;10413002;28;20225;-64
2021/09/22 03:56:54;;;;;;;3.37;1.10;;;17.70;75.20;;;;;;10413593;28;20209;-63
2021/09/22 04:02:16;;;;;;;1.90;1.30;;;17.70;75.20;;;;;;10418142;28;20225;-65
2021/09/22 04:07:40;;;;;;;1.60;1.23;;;17.70;75.20;;;;;;10430408;28;20682;-64
2021/09/22 04:13:02;;;;;;;2.00;1.10;;;17.70;75.30;;;;;;10452257;28;20220;-64
2021/09/22 04:18:24;;;;;;;1.17;1.07;;;17.70;75.30;;;;;;10452740;28;20220;-63
2021/09/22 04:23:48;;;;;;;1.77;1.40;;;17.70;75.30;;;;;;10452971;28;20217;-65
2021/09/22 04:29:11;;;;;;;2.43;1.63;;;17.70;75.30;;;;;;10452384;28;20413;-65
2021/09/22 04:34:33;;;;;;;2.67;1.40;;;17.70;75.30;;;;;;10445105;28;20201;-64
2021/09/22 04:39:56;;;;;;;2.90;1.40;;;17.70;75.30;;;;;;10439046;28;20220;-64
2021/09/22 04:45:19;;;;;;;1.97;1.37;;;17.70;75.30;;;;;;10440344;28;20576;-64
2021/09/22 04:50:41;;;;;;;2.47;1.40;;;17.70;75.30;;;;;;10443378;28;20687;-64
2021/09/22 04:56:05;;;;;;;2.37;1.40;;;17.70;75.30;;;;;;10451684;28;20227;-65
2021/09/22 05:01:27;;;;;;;1.50;1.20;;;17.70;75.30;;;;;;10445190;28;20216;-66
2021/09/22 05:06:49;;;;;;;2.10;1.60;;;17.70;75.90;;;;;;10452579;28;20205;-65
2021/09/22 05:12:13;;;;;;;1.40;1.27;;;17.70;75.40;;;;;;10449836;28;20227;-64
2021/09/22 05:17:35;;;;;;;1.87;1.20;;;17.70;75.40;;;;;;10450324;28;20213;-66
2021/09/22 05:22:57;;;;;;;2.83;1.70;;;17.70;75.40;;;;;;10450109;28;20592;-64
2021/09/22 05:28:21;;;;;;;3.20;1.60;;;17.70;75.40;;;;;;10450740;28;20564;-65
2021/09/22 05:33:43;;;;;;;2.07;1.30;;;17.70;75.40;;;;;;10450273;28;20221;-64
2021/09/22 05:39:06;;;;;;;2.43;1.80;;;17.70;75.40;;;;;;10429644;28;20218;-66
2021/09/22 05:44:30;;;;;;;1.93;1.30;;;17.70;75.50;;;;;;10409669;28;20653;-66
2021/09/22 05:49:52;;;;;;;1.70;1.30;;;17.70;75.50;;;;;;10409550;28;20214;-66
2021/09/22 05:55:14;;;;;;;1.33;1.20;;;17.70;75.40;;;;;;10435123;28;20205;-65
2021/09/22 06:00:38;;;;;;;3.30;2.20;;;17.70;75.50;;;;;;10486210;28;20222;-66
2021/09/22 06:06:00;;;;;;;4.97;3.40;;;17.70;75.60;;;;;;10481201;28;20200;-66
2021/09/22 06:11:22;;;;;;;4.70;3.57;;;17.70;75.60;;;;;;10449395;28;20258;-66
2021/09/22 06:16:46;;;;;;;5.80;4.13;;;17.70;75.70;;;;;;10469591;28;20556;-66
2021/09/22 06:22:08;;;;;;;8.50;5.83;;;17.60;75.70;;;;;;10472838;28;20255;-66
2021/09/22 06:27:30;;;;;;;9.00;6.20;;;17.60;75.70;;;;;;10461888;28;20203;-65
2021/09/22 06:32:54;;;;;;;9.70;6.77;;;17.60;75.80;;;;;;10462539;28;20223;-66
2021/09/22 06:38:16;;;;;;;9.60;7.27;;;17.60;75.90;;;;;;10461278;28;20219;-66
2021/09/22 06:43:38;;;;;;;10.27;7.60;;;17.60;75.90;;;;;;10481304;28;20236;-66
2021/09/22 06:49:01;;;;;;;11.73;7.70;;;17.60;76.10;;;;;;10469769;28;20195;-66
2021/09/22 06:54:24;;;;;;;11.80;8.40;;;17.60;76.20;;;;;;10475122;28;20207;-66
2021/09/22 06:59:46;;;;;;;10.23;7.47;;;17.60;76.30;;;;;;10460200;28;20220;-66
2021/09/22 07:05:11;;;;;;;11.13;7.90;;;17.60;76.30;;;;;;10458626;23;20230;-61
2021/09/22 07:10:34;;;;;;;11.13;8.40;;;17.60;76.50;;;;;;10418151;28;20224;-58
2021/09/22 07:15:57;;;;;;;10.20;8.20;;;17.60;76.60;;;;;;10414193;28;20218;-62
2021/09/22 07:21:21;;;;;;;13.93;8.23;;;17.60;76.70;;;;;;10411228;28;20269;-61
2021/09/22 07:26:43;;;;;;;15.30;8.87;;;17.70;76.80;;;;;;10402374;28;20226;-61
2021/09/22 07:32:07;;;;;;;13.73;8.40;;;17.70;76.90;;;;;;10406488;28;20209;-59
2021/09/22 07:37:31;;;;;;;11.70;8.90;;;17.60;77.00;;;;;;10401127;28;20316;-60
2021/09/22 07:42:53;;;;;;;11.60;9.37;;;17.60;77.00;;;;;;10402455;28;20205;-59
2021/09/22 07:48:15;;;;;;;13.13;8.43;;;17.60;77.00;;;;;;10423058;28;20209;-58
2021/09/22 07:53:38;;;;;;;11.63;8.97;;;17.70;77.20;;;;;;10412907;28;20190;-60
2021/09/22 07:59:01;;;;;;;12.07;8.57;;;17.60;77.20;;;;;;10414030;28;20246;-58
2021/09/22 08:04:23;;;;;;;13.07;8.93;;;17.60;77.30;;;;;;10413415;28;20714;-56
2021/09/22 08:09:47;;;;;;;13.43;8.67;;;17.60;77.40;;;;;;10412793;28;20201;-59
2021/09/22 08:15:10;;;;;;;11.83;7.67;;;17.60;77.40;;;;;;10414866;28;20217;-59
2021/09/22 08:20:33;;;;;;;10.43;7.37;;;17.60;77.50;;;;;;10388770;28;20690;-59
2021/09/22 08:25:56;;;;;;;11.03;7.33;;;17.60;77.40;;;;;;10402509;28;20238;-61
2021/09/22 08:31:18;;;;;;;10.03;7.17;;;17.60;77.40;;;;;;10413041;28;20202;-57
2021/09/22 08:36:41;;;;;;;10.20;6.83;;;17.60;77.30;;;;;;10413215;28;20586;-58
2021/09/22 08:42:06;;;;;;;10.43;6.23;;;17.60;77.30;;;;;;10411283;28;20816;-58
2021/09/22 08:47:28;;;;;;;7.77;6.07;;;17.60;77.30;;;;;;10411212;28;20209;-59
2021/09/22 08:52:51;;;;;;;8.27;5.93;;;17.60;77.20;;;;;;10402215;28;20205;-60
2021/09/22 08:58:14;;;;;;;7.50;5.50;;;17.60;77.80;;;;;;10410787;28;20217;-59
2021/09/22 09:03:40;;;;;;;7.47;6.47;;;17.60;77.80;;;;;;10411978;28;20717;-55
2021/09/22 09:09:05;;;;;;;8.33;6.00;;;17.70;77.20;;;;;;10411928;28;20699;-62
2021/09/22 09:14:34;;;;;;;8.67;5.73;;;17.60;77.20;;;;;;10410684;28;20225;-61
2021/09/22 09:19:57;;;;;;;6.43;5.13;;;17.70;77.50;;;;;;10382334;28;20218;-59
2021/09/22 09:25:23;;;;;;;5.57;4.80;;;17.70;77.30;;;;;;10409555;28;20216;-59
2021/09/22 09:30:48;;;;;;;5.77;4.90;;;17.70;77.30;;;;;;10403153;28;20270;-59
2021/09/22 09:36:23;;;;;;;5.70;4.70;;;17.70;77.30;;;;;;10412932;28;20606;-59
2021/09/22 09:41:49;;;;;;;5.80;4.97;;;17.70;77.30;;;;;;10409764;28;20193;-57
2021/09/22 09:47:13;;;;;;;5.70;4.70;;;17.60;77.20;;;;;;10409727;28;20268;-60
2021/09/22 09:52:50;;;;;;;6.40;4.90;;;17.60;77.30;;;;;;10449998;28;20204;-59
2021/09/22 09:58:12;;;;;;;6.10;4.70;;;17.70;77.30;;;;;;10451279;28;20235;-60
2021/09/22 10:03:35;;;;;;;7.23;4.73;;;17.60;77.30;;;;;;10450938;28;20196;-58
2021/09/22 10:08:58;;;;;;;4.60;4.17;;;17.70;77.30;;;;;;10415373;28;20740;-59
2021/09/22 10:14:20;;;;;;;4.33;3.90;;;17.70;77.40;;;;;;10408062;28;20236;-58
2021/09/22 10:19:45;;;;;;;5.83;4.53;;;17.60;77.30;;;;;;10433427;28;20347;-59
2021/09/22 10:25:08;;;;;;;5.60;4.57;;;17.60;77.40;;;;;;10403066;28;20221;-58
2021/09/22 10:30:36;;;;;;;5.73;4.47;;;17.60;77.30;;;;;;10409838;28;20575;-60
2021/09/22 10:36:01;;;;;;;5.50;4.60;;;17.60;77.40;;;;;;10410224;28;20598;-60
2021/09/22 10:41:32;;;;;;;4.47;3.93;;;17.60;77.30;;;;;;10416365;28;20186;-61
2021/09/22 10:46:54;;;;;;;5.70;4.03;;;17.60;77.30;;;;;;10413129;28;20206;-67
2021/09/22 10:52:31;;;;;;;4.87;4.20;;;17.70;77.50;;;;;;10412745;28;20189;-67
2021/09/22 10:58:10;;;;;;;4.37;3.80;;;17.60;77.40;;;;;;10403399;28;20594;-68
2021/09/22 11:03:55;;;;;;;4.87;4.23;;;17.70;77.40;;;;;;10419843;28;20193;-66
2021/09/22 11:09:33;;;;;;;5.73;4.07;;;17.70;77.30;;;;;;10415312;28;20689;-68
2021/09/22 11:14:59;;;;;;;5.20;3.83;;;17.70;77.40;;;;;;10415853;28;20213;-68
2021/09/22 11:20:21;;;;;;;4.23;3.70;;;17.70;77.40;;;;;;10415498;28;20218;-70
2021/09/22 11:25:44;;;;;;;4.30;3.90;;;17.70;77.40;;;;;;10398142;28;20722;-69
2021/09/22 11:31:07;;;;;;;4.50;3.70;;;17.60;77.30;;;;;;10375259;28;20198;-68
2021/09/22 11:36:29;;;;;;;4.07;3.60;;;17.70;77.30;;;;;;10405758;28;20218;-67
2021/09/22 11:41:56;;;;;;;4.63;3.80;;;17.70;77.40;;;;;;10414090;28;20193;-67
2021/09/22 11:47:19;;;;;;;5.67;3.63;;;17.70;77.40;;;;;;10410483;28;20602;-65
2021/09/22 11:52:48;;;;;;;4.03;3.60;;;17.70;77.30;;;;;;10453633;28;20316;-67
2021/09/22 11:58:13;;;;;;;5.97;3.87;;;17.60;77.20;;;;;;10431070;28;20229;-67
2021/09/22 12:03:38;;;;;;;4.97;3.97;;;17.60;77.20;;;;;;10413200;28;20190;-68
2021/09/22 12:09:05;;;;;;;3.87;3.20;;;17.70;77.20;;;;;;10410965;28;20224;-68
2021/09/22 12:14:29;;;;;;;4.40;3.60;;;17.70;77.30;;;;;;10412813;28;20236;-66
2021/09/22 12:19:52;;;;;;;3.97;3.47;;;17.70;77.30;;;;;;10411591;28;20213;-67
2021/09/22 12:25:15;;;;;;;4.37;3.27;;;17.70;77.30;;;;;;10415251;28;20235;-65
2021/09/22 12:30:40;;;;;;;4.67;3.17;;;17.70;77.40;;;;;;10452304;28;20197;-65
2021/09/22 12:36:10;;;;;;;4.13;3.73;;;17.70;77.30;;;;;;10453145;28;20232;-66
2021/09/22 12:41:32;;;;;;;4.27;3.23;;;17.70;77.50;;;;;;10442802;28;20210;-65
2021/09/22 12:46:56;;;;;;;6.27;2.97;;;17.70;77.40;;;;;;10392136;28;20221;-67
2021/09/22 12:52:22;;;;;;;3.90;2.93;;;17.70;77.50;;;;;;10409508;28;20216;-66
2021/09/22 12:57:46;;;;;;;3.40;2.90;;;17.70;77.60;;;;;;10410004;28;20730;-67
2021/09/22 13:03:19;;;;;;;4.03;2.53;;;17.70;77.50;;;;;;10387479;28;20202;-70
2021/09/22 13:08:47;;;;;;;3.57;2.80;;;17.70;77.60;;;;;;10411627;28;20231;-60
2021/09/22 13:14:11;;;;;;;4.77;3.07;;;17.70;77.50;;;;;;10452802;23;20233;-65
2021/09/22 13:19:35;;;;;;;3.50;2.63;;;17.70;77.40;;;;;;10451288;28;20389;-62
2021/09/22 13:24:57;;;;;;;3.33;2.37;;;17.70;77.30;;;;;;10403460;28;20213;-62
2021/09/22 13:30:20;;;;;;;3.60;2.50;;;17.70;77.30;;;;;;10410168;28;20217;-63
2021/09/22 13:35:43;;;;;;;2.63;2.20;;;17.70;77.20;;;;;;10409193;28;20202;-63
2021/09/22 13:41:06;;;;;;;3.67;2.57;;;17.70;77.30;;;;;;10383317;28;20222;-65
2021/09/22 13:46:28;;;;;;;3.10;2.43;;;17.70;77.40;;;;;;10374764;28;20575;-67
2021/09/22 13:51:52;;;;;;;3.97;2.47;;;17.70;77.50;;;;;;10401953;28;20206;-68
2021/09/22 13:57:14;;;;;;;3.13;2.00;;;17.70;77.60;;;;;;10410844;28;20566;-68
2021/09/22 14:02:36;;;;;;;2.97;1.97;;;17.70;77.70;;;;;;10412860;28;20213;-67
2021/09/22 14:08:02;;;;;;;2.77;1.97;;;17.70;77.70;;;;;;10400991;28;20697;-69
2021/09/22 14:13:24;;;;;;;2.80;1.83;;;17.70;77.60;;;;;;10416041;28;20217;-67
2021/09/22 14:18:46;;;;;;;2.33;1.80;;;17.70;77.60;;;;;;10417364;28;20214;-67
2021/09/22 14:24:10;;;;;;;3.07;2.17;;;17.70;77.60;;;;;;10382191;28;20217;-69
2021/09/22 14:29:32;;;;;;;3.43;2.20;;;17.70;77.60;;;;;;10380630;28;20202;-67
2021/09/22 14:34:54;;;;;;;3.13;2.10;;;17.70;77.40;;;;;;10387997;28;20198;-67
2021/09/22 14:40:18;;;;;;;3.40;2.13;;;17.80;77.50;;;;;;10409870;28;20214;-67
2021/09/22 14:45:40;;;;;;;3.10;2.23;;;17.70;77.40;;;;;;10416912;28;20190;-67
2021/09/22 14:51:02;;;;;;;5.33;2.03;;;17.80;77.50;;;;;;10408080;28;20210;-67
2021/09/22 14:56:26;;;;;;;2.50;2.20;;;17.80;77.50;;;;;;10401649;28;20632;-69
2021/09/22 15:01:48;;;;;;;3.70;2.17;;;17.80;77.40;;;;;;10419681;28;20226;-68
2021/09/22 15:07:10;;;;;;;3.43;2.13;;;17.80;77.30;;;;;;10394769;28;20193;-69
2021/09/22 15:12:34;;;;;;;2.37;1.97;;;17.80;77.20;;;;;;10419894;28;20222;-69
2021/09/22 15:17:56;;;;;;;2.30;1.87;;;17.70;77.20;;;;;;10418936;28;20214;-69
2021/09/22 15:23:19;;;;;;;3.93;2.20;;;17.70;77.10;;;;;;10412487;28;20225;-68
2021/09/22 15:28:42;;;;;;;2.10;1.90;;;17.70;77.10;;;;;;10386885;28;20520;-69
2021/09/22 15:34:05;;;;;;;2.93;2.23;;;17.80;77.10;;;;;;10417886;28;20222;-68
2021/09/22 15:39:27;;;;;;;2.30;1.93;;;17.80;77.20;;;;;;10449385;28;20237;-69
2021/09/22 15:44:51;;;;;;;4.43;2.30;;;17.80;77.20;;;;;;10385339;28;20194;-68
2021/09/22 15:50:13;;;;;;;2.13;1.90;;;17.80;77.30;;;;;;10398756;28;20218;-69
2021/09/22 15:55:35;;;;;;;3.53;2.30;;;17.80;77.30;;;;;;10380994;28;20190;-68
2021/09/22 16:01:00;;;;;;;3.17;2.30;;;17.80;77.20;;;;;;10376281;28;20230;-68
2021/09/22 16:06:22;;;;;;;2.50;2.00;;;17.80;77.30;;;;;;10399005;28;20190;-69
2021/09/22 16:11:44;;;;;;;2.10;1.90;;;17.70;77.20;;;;;;10414898;28;20234;-69
2021/09/22 16:17:08;;;;;;;2.70;2.00;;;17.70;77.10;;;;;;10411844;28;20202;-69
2021/09/22 16:22:30;;;;;;;2.90;2.17;;;17.80;77.20;;;;;;10417480;28;20214;-68
2021/09/22 16:27:53;;;;;;;3.03;2.10;;;17.80;77.00;;;;;;10413429;28;20185;-69
2021/09/22 16:33:17;;;;;;;3.60;2.50;;;17.80;77.00;;;;;;10415172;28;20221;-68
2021/09/22 16:38:39;;;;;;;2.87;2.00;;;17.80;76.70;;;;;;10395222;28;20225;-68
2021/09/22 16:44:02;;;;;;;3.87;2.50;;;17.80;76.40;;;;;;10415978;28;20214;-68
2021/09/22 16:49:26;;;;;;;3.90;2.23;;;17.80;76.40;;;;;;10415451;28;20575;-68
2021/09/22 16:54:48;;;;;;;3.13;1.90;;;17.80;76.50;;;;;;10399152;28;20209;-68
2021/09/22 17:00:11;;;;;;;2.97;1.90;;;17.80;76.60;;;;;;10410315;28;20722;-69
2021/09/22 17:05:34;;;;;;;4.43;2.20;;;17.80;76.70;;;;;;10409642;28;20629;-69
2021/09/22 17:10:56;;;;;;;2.07;1.70;;;17.80;77.40;;;;;;10414192;28;20221;-68
2021/09/22 17:16:19;;;;;;;2.13;1.90;;;17.80;77.00;;;;;;10415195;28;20285;-69
2021/09/22 17:21:43;;;;;;;1.97;1.50;;;17.80;77.10;;;;;;10416558;28;20248;-68
2021/09/22 17:27:06;;;;;;;2.57;2.07;;;17.70;77.00;;;;;;10416458;28;21000;-69
2021/09/22 17:32:28;;;;;;;2.80;2.00;;;17.80;77.10;;;;;;10418072;28;20219;-69
2021/09/22 17:37:52;;;;;;;2.80;1.93;;;17.80;77.00;;;;;;10415287;28;20196;-68
2021/09/22 17:43:15;;;;;;;2.50;1.70;;;17.80;76.90;;;;;;10414042;28;20222;-69
2021/09/22 17:48:37;;;;;;;2.27;1.80;;;17.80;77.00;;;;;;10414056;28;20190;-68
2021/09/22 17:54:01;;;;;;;2.43;2.13;;;17.80;77.30;;;;;;10414643;28;20225;-69
2021/09/22 17:59:23;;;;;;;2.93;2.10;;;17.80;77.30;;;;;;10401529;28;20218;-68
2021/09/22 18:04:46;;;;;;;2.50;2.07;;;17.80;77.30;;;;;;10378974;28;20589;-70
2021/09/22 18:10:13;;;;;;;3.33;1.90;;;17.80;77.30;;;;;;10444520;28;20205;-69
2021/09/22 18:15:36;;;;;;;2.67;2.43;;;17.70;77.40;;;;;;10450686;28;20205;-68
2021/09/22 18:21:00;;;;;;;3.93;2.43;;;17.80;77.40;;;;;;10411664;28;20428;-68
2021/09/22 18:26:23;;;;;;;2.93;2.33;;;17.70;77.40;;;;;;10409917;28;20666;-68
2021/09/22 18:31:45;;;;;;;4.30;2.37;;;17.80;77.50;;;;;;10407046;28;20613;-68
2021/09/22 18:37:08;;;;;;;3.07;2.60;;;17.80;77.50;;;;;;10409744;28;20197;-69
2021/09/22 18:42:31;;;;;;;3.07;2.60;;;17.80;77.40;;;;;;10410269;28;20232;-69
2021/09/22 18:47:54;;;;;;;3.47;2.77;;;17.70;77.40;;;;;;10410061;28;20707;-68
2021/09/22 18:53:16;;;;;;;3.87;2.20;;;17.80;77.50;;;;;;10407901;28;20214;-68
2021/09/22 18:58:40;;;;;;;3.33;2.40;;;17.80;77.40;;;;;;10411830;28;20202;-68
2021/09/22 19:04:04;;;;;;;2.40;2.20;;;17.80;77.50;;;;;;10416735;28;20209;-68
2021/09/22 19:09:27;;;;;;;3.03;2.50;;;17.80;77.50;;;;;;10417525;28;20666;-68
2021/09/22 19:14:51;;;;;;;3.63;2.60;;;17.80;77.60;;;;;;10411519;28;20226;-68
2021/09/22 19:20:13;;;;;;;2.67;2.47;;;17.80;78.20;;;;;;10419065;28;20747;-68
2021/09/22 19:25:35;;;;;;;3.13;2.63;;;17.80;77.50;;;;;;10415787;28;20198;-68
2021/09/22 19:30:58;;;;;;;2.80;2.60;;;17.70;77.50;;;;;;10472820;22;20224;-67
2021/09/22 19:36:21;;;;;;;3.97;2.23;;;17.80;77.50;;;;;;10497147;28;20196;-67
2021/09/22 19:41:43;;;;;;;2.73;2.30;;;17.80;77.50;;;;;;10487910;28;20223;-68
2021/09/22 19:47:08;;;;;;;5.60;2.67;;;17.80;77.60;;;;;;10481356;28;20197;-68
2021/09/22 19:52:30;;;;;;;2.47;2.03;;;17.80;77.50;;;;;;10480406;28;20681;-68
2021/09/22 19:57:53;;;;;;;2.60;2.30;;;17.80;77.50;;;;;;10477057;28;20204;-67
2021/09/22 20:03:16;;;;;;;3.50;2.20;;;17.80;77.50;;;;;;10471814;28;20670;-66
2021/09/22 20:08:38;;;;;;;3.97;2.70;;;17.80;77.60;;;;;;10500431;28;20267;-67
2021/09/22 20:14:01;;;;;;;3.87;2.60;;;17.80;77.60;;;;;;10510264;28;20220;-68
2021/09/22 20:19:24;;;;;;;2.43;2.10;;;17.70;77.60;;;;;;10491421;28;20228;-68
2021/09/22 20:24:47;;;;;;;2.33;2.13;;;17.80;77.60;;;;;;10462677;28;20201;-67
2021/09/22 20:30:10;;;;;;;3.27;2.40;;;17.70;77.60;;;;;;10455562;28;20225;-67
2021/09/22 20:35:33;;;;;;;2.40;2.20;;;17.80;77.60;;;;;;10460376;28;20483;-67
2021/09/22 20:40:56;;;;;;;4.03;2.40;;;17.80;77.70;;;;;;10520771;28;20224;-68
2021/09/22 20:46:18;;;;;;;2.60;2.40;;;17.80;77.70;;;;;;10528877;28;20200;-69
2021/09/22 20:51:42;;;;;;;2.57;2.17;;;17.80;77.70;;;;;;10454785;28;20231;-67
2021/09/22 20:57:04;;;;;;;3.07;2.77;;;17.80;77.70;;;;;;10464468;28;20189;-67
2021/09/22 21:02:26;;;;;;;3.03;2.20;;;17.80;77.70;;;;;;10451558;28;20217;-67
2021/09/22 21:07:50;;;;;;;3.23;2.60;;;17.80;77.70;;;;;;10461483;28;20200;-68
2021/09/22 21:13:12;;;;;;;2.30;1.97;;;17.80;77.70;;;;;;10477034;28;20223;-66
2021/09/22 21:18:34;;;;;;;2.63;2.43;;;17.80;77.70;;;;;;10508347;28;20225;-66
2021/09/22 21:23:58;;;;;;;3.27;2.03;;;17.80;77.70;;;;;;10481624;28;20197;-68
2021/09/22 21:29:21;;;;;;;2.83;2.53;;;17.80;77.70;;;;;;10533274;28;20224;-67
2021/09/22 21:34:43;;;;;;;2.93;2.37;;;17.80;77.60;;;;;;10533581;28;20203;-67
2021/09/22 21:40:10;;;;;;;2.30;2.10;;;17.80;77.70;;;;;;10532721;28;20211;-67
2021/09/22 21:45:32;;;;;;;2.53;1.80;;;17.70;77.60;;;;;;10490332;28;20203;-67
2021/09/22 21:50:54;;;;;;;2.90;2.17;;;17.80;77.70;;;;;;10484883;28;20216;-67
2021/09/22 21:56:19;;;;;;;3.40;2.03;;;17.70;77.70;;;;;;10495932;28;20673;-67
2021/09/22 22:01:42;;;;;;;2.33;2.13;;;17.80;77.70;;;;;;10510365;28;20216;-68
2021/09/22 22:07:04;;;;;;;2.40;2.20;;;17.80;77.60;;;;;;10451004;28;20197;-67
2021/09/22 22:12:28;;;;;;;2.13;1.93;;;17.80;77.60;;;;;;10461919;28;20239;-69
2021/09/22 22:17:50;;;;;;;3.10;2.33;;;17.80;77.70;;;;;;10489612;28;20204;-66
2021/09/22 22:23:12;;;;;;;2.30;2.10;;;17.80;77.60;;;;;;10490723;28;20219;-67
2021/09/22 22:28:35;;;;;;;3.17;2.30;;;17.80;77.70;;;;;;10490802;28;20719;-66
2021/09/22 22:33:58;;;;;;;2.50;2.30;;;17.80;77.80;;;;;;10494274;28;20195;-68
2021/09/22 22:39:20;;;;;;;2.20;1.97;;;17.70;77.60;;;;;;10497947;28;20216;-67
2021/09/22 22:44:43;;;;;;;3.20;2.43;;;17.80;77.60;;;;;;10495478;28;20197;-67
2021/09/22 22:50:06;;;;;;;2.50;2.30;;;17.70;77.60;;;;;;10482043;28;20227;-67
2021/09/22 22:55:28;;;;;;;2.13;1.93;;;17.80;77.70;;;;;;10462437;28;20196;-66
2021/09/22 23:00:51;;;;;;;2.37;2.00;;;17.80;77.70;;;;;;10514371;28;20601;-67
2021/09/22 23:06:14;;;;;;;3.30;2.10;;;17.70;77.60;;;;;;10465373;28;20208;-68
2021/09/22 23:11:36;;;;;;;2.47;2.13;;;17.80;77.60;;;;;;10455389;28;20582;-67
2021/09/22 23:17:08;;;;;;;2.50;2.30;;;17.70;77.60;;;;;;10490862;28;20197;-67
2021/09/22 23:28:10;;;;;;;3.20;2.40;;;17.70;77.60;;;;;;10497761;28;20184;-67
2021/09/22 23:33:34;;;;;;;2.53;2.10;;;17.70;77.60;;;;;;10496409;28;20188;-66
2021/09/22 23:38:56;;;;;;;2.57;1.93;;;17.70;77.60;;;;;;10497263;28;20212;-67
2021/09/22 23:44:18;;;;;;;2.33;1.73;;;17.80;77.70;;;;;;10495786;28;20696;-66
2021/09/22 23:49:42;;;;;;;5.13;2.00;;;17.70;77.50;;;;;;10467419;28;20209;-68
2021/09/22 23:55:05;;;;;;;2.67;2.00;;;17.70;77.60;;;;;;10454494;28;20559;-68
